sensor_id;sensor_type;location;lat;lon;timestamp;P1;durP1;ratioP1;P2;durP2;ratioP2
42104;SDS011;70664;51.472;5.712;2024-02-23T00:00:53;15.25;;;4.90;;
42104;SDS011;70664;51.472;5.712;2024-02-23T00:03:19;11.23;;;4.18;;
42104;SDS011;70664;51.472;5.712;2024-02-23T00:05:45;15.20;;;4.80;;
42104;SDS011;70664;51.472;5.712;2024-02-23T00:08:10;12.88;;;4.72;;
42104;SDS011;70664;51.472;5.712;2024-02-23T00:10:36;12.73;;;5.03;;
42104;SDS011;70664;51.472;5.712;2024-02-23T00:13:03;11.73;;;4.55;;
42104;SDS011;70664;51.472;5.712;2024-02-23T00:15:29;11.50;;;5.18;;
42104;SDS011;70664;51.472;5.712;2024-02-23T00:17:55;12.38;;;5.20;;
42104;SDS011;70664;51.472;5.712;2024-02-23T00:20:21;11.55;;;4.63;;
42104;SDS011;70664;51.472;5.712;2024-02-23T00:22:47;13.73;;;4.95;;
42104;SDS011;70664;51.472;5.712;2024-02-23T00:25:13;13.40;;;5.20;;
42104;SDS011;70664;51.472;5.712;2024-02-23T00:27:39;11.07;;;4.55;;
42104;SDS011;70664;51.472;5.712;2024-02-23T00:30:06;12.35;;;5.15;;
42104;SDS011;70664;51.472;5.712;2024-02-23T00:32:33;9.00;;;4.35;;
42104;SDS011;70664;51.472;5.712;2024-02-23T00:34:58;10.27;;;3.75;;
42104;SDS011;70664;51.472;5.712;2024-02-23T00:37:24;10.10;;;4.13;;
42104;SDS011;70664;51.472;5.712;2024-02-23T00:39:50;11.13;;;4.55;;
42104;SDS011;70664;51.472;5.712;2024-02-23T00:42:16;12.43;;;5.07;;
42104;SDS011;70664;51.472;5.712;2024-02-23T00:44:41;8.32;;;3.97;;
42104;SDS011;70664;51.472;5.712;2024-02-23T00:47:07;9.68;;;4.28;;
42104;SDS011;70664;51.472;5.712;2024-02-23T00:49:34;10.93;;;4.15;;
42104;SDS011;70664;51.472;5.712;2024-02-23T00:52:00;11.02;;;4.28;;
42104;SDS011;70664;51.472;5.712;2024-02-23T00:54:26;9.90;;;4.13;;
42104;SDS011;70664;51.472;5.712;2024-02-23T00:56:51;9.32;;;3.72;;
42104;SDS011;70664;51.472;5.712;2024-02-23T00:59:17;9.38;;;4.35;;
42104;SDS011;70664;51.472;5.712;2024-02-23T01:01:43;8.95;;;4.10;;
42104;SDS011;70664;51.472;5.712;2024-02-23T01:04:09;9.23;;;4.15;;
42104;SDS011;70664;51.472;5.712;2024-02-23T01:06:34;10.63;;;4.20;;
42104;SDS011;70664;51.472;5.712;2024-02-23T01:09:00;11.20;;;4.32;;
42104;SDS011;70664;51.472;5.712;2024-02-23T01:11:26;9.27;;;3.95;;
42104;SDS011;70664;51.472;5.712;2024-02-23T01:13:52;9.82;;;4.22;;
42104;SDS011;70664;51.472;5.712;2024-02-23T01:16:18;10.35;;;4.10;;
42104;SDS011;70664;51.472;5.712;2024-02-23T01:18:43;9.30;;;3.75;;
42104;SDS011;70664;51.472;5.712;2024-02-23T01:21:09;10.25;;;3.80;;
42104;SDS011;70664;51.472;5.712;2024-02-23T01:23:35;7.95;;;3.53;;
42104;SDS011;70664;51.472;5.712;2024-02-23T01:26:01;9.32;;;3.78;;
42104;SDS011;70664;51.472;5.712;2024-02-23T01:28:27;7.90;;;3.50;;
42104;SDS011;70664;51.472;5.712;2024-02-23T01:30:53;8.65;;;3.70;;
42104;SDS011;70664;51.472;5.712;2024-02-23T01:33:19;7.60;;;2.88;;
42104;SDS011;70664;51.472;5.712;2024-02-23T01:35:44;9.23;;;3.47;;
42104;SDS011;70664;51.472;5.712;2024-02-23T01:38:10;7.68;;;3.45;;
42104;SDS011;70664;51.472;5.712;2024-02-23T01:40:36;8.60;;;3.70;;
42104;SDS011;70664;51.472;5.712;2024-02-23T01:43:05;8.73;;;3.85;;
42104;SDS011;70664;51.472;5.712;2024-02-23T01:45:31;8.52;;;3.35;;
42104;SDS011;70664;51.472;5.712;2024-02-23T01:47:57;8.35;;;3.30;;
42104;SDS011;70664;51.472;5.712;2024-02-23T01:50:25;8.13;;;3.53;;
42104;SDS011;70664;51.472;5.712;2024-02-23T01:52:51;8.30;;;3.30;;
42104;SDS011;70664;51.472;5.712;2024-02-23T01:55:19;7.05;;;3.45;;
42104;SDS011;70664;51.472;5.712;2024-02-23T01:57:46;8.52;;;3.58;;
42104;SDS011;70664;51.472;5.712;2024-02-23T02:00:15;7.82;;;3.50;;
42104;SDS011;70664;51.472;5.712;2024-02-23T02:02:43;8.88;;;3.20;;
42104;SDS011;70664;51.472;5.712;2024-02-23T02:05:10;7.90;;;3.47;;
42104;SDS011;70664;51.472;5.712;2024-02-23T02:07:36;6.90;;;3.10;;
42104;SDS011;70664;51.472;5.712;2024-02-23T02:10:05;7.10;;;3.35;;
42104;SDS011;70664;51.472;5.712;2024-02-23T02:12:34;6.18;;;3.20;;
42104;SDS011;70664;51.472;5.712;2024-02-23T02:15:01;6.88;;;2.72;;
42104;SDS011;70664;51.472;5.712;2024-02-23T02:17:29;7.35;;;2.92;;
42104;SDS011;70664;51.472;5.712;2024-02-23T02:19:54;7.00;;;2.92;;
42104;SDS011;70664;51.472;5.712;2024-02-23T02:22:23;8.57;;;3.47;;
42104;SDS011;70664;51.472;5.712;2024-02-23T02:24:49;7.35;;;2.90;;
42104;SDS011;70664;51.472;5.712;2024-02-23T02:27:15;7.15;;;3.17;;
42104;SDS011;70664;51.472;5.712;2024-02-23T02:29:41;7.63;;;3.20;;
42104;SDS011;70664;51.472;5.712;2024-02-23T02:32:06;7.60;;;3.05;;
42104;SDS011;70664;51.472;5.712;2024-02-23T02:34:32;5.75;;;2.80;;
42104;SDS011;70664;51.472;5.712;2024-02-23T02:36:58;7.45;;;2.92;;
42104;SDS011;70664;51.472;5.712;2024-02-23T02:39:25;7.05;;;2.97;;
42104;SDS011;70664;51.472;5.712;2024-02-23T02:41:52;5.63;;;2.83;;
42104;SDS011;70664;51.472;5.712;2024-02-23T02:44:18;5.47;;;2.67;;
42104;SDS011;70664;51.472;5.712;2024-02-23T02:46:44;7.25;;;2.90;;
42104;SDS011;70664;51.472;5.712;2024-02-23T02:49:11;6.00;;;2.80;;
42104;SDS011;70664;51.472;5.712;2024-02-23T02:51:37;7.35;;;3.08;;
42104;SDS011;70664;51.472;5.712;2024-02-23T02:54:02;7.45;;;2.67;;
42104;SDS011;70664;51.472;5.712;2024-02-23T02:56:28;5.82;;;3.00;;
42104;SDS011;70664;51.472;5.712;2024-02-23T02:58:54;6.75;;;2.88;;
42104;SDS011;70664;51.472;5.712;2024-02-23T03:01:20;8.43;;;2.97;;
42104;SDS011;70664;51.472;5.712;2024-02-23T03:03:46;5.15;;;2.30;;
42104;SDS011;70664;51.472;5.712;2024-02-23T03:06:12;6.25;;;2.83;;
42104;SDS011;70664;51.472;5.712;2024-02-23T03:08:38;7.18;;;2.65;;
42104;SDS011;70664;51.472;5.712;2024-02-23T03:11:06;6.03;;;2.50;;
42104;SDS011;70664;51.472;5.712;2024-02-23T03:13:32;6.03;;;2.80;;
42104;SDS011;70664;51.472;5.712;2024-02-23T03:15:57;6.55;;;2.53;;
42104;SDS011;70664;51.472;5.712;2024-02-23T03:18:23;4.93;;;2.35;;
42104;SDS011;70664;51.472;5.712;2024-02-23T03:20:49;6.80;;;2.85;;
42104;SDS011;70664;51.472;5.712;2024-02-23T03:23:15;5.20;;;2.30;;
42104;SDS011;70664;51.472;5.712;2024-02-23T03:25:41;6.93;;;2.75;;
42104;SDS011;70664;51.472;5.712;2024-02-23T03:28:06;5.32;;;2.30;;
42104;SDS011;70664;51.472;5.712;2024-02-23T03:30:32;4.20;;;2.08;;
42104;SDS011;70664;51.472;5.712;2024-02-23T03:32:58;5.85;;;2.38;;
42104;SDS011;70664;51.472;5.712;2024-02-23T03:35:24;4.18;;;2.20;;
42104;SDS011;70664;51.472;5.712;2024-02-23T03:37:49;6.20;;;2.25;;
42104;SDS011;70664;51.472;5.712;2024-02-23T03:40:15;5.90;;;2.30;;
42104;SDS011;70664;51.472;5.712;2024-02-23T03:42:43;4.75;;;2.10;;
42104;SDS011;70664;51.472;5.712;2024-02-23T03:45:09;4.13;;;2.00;;
42104;SDS011;70664;51.472;5.712;2024-02-23T03:47:35;6.35;;;2.28;;
42104;SDS011;70664;51.472;5.712;2024-02-23T03:50:01;3.90;;;2.10;;
42104;SDS011;70664;51.472;5.712;2024-02-23T03:52:26;5.13;;;2.50;;
42104;SDS011;70664;51.472;5.712;2024-02-23T03:54:52;6.50;;;2.50;;
42104;SDS011;70664;51.472;5.712;2024-02-23T03:57:19;4.65;;;2.13;;
42104;SDS011;70664;51.472;5.712;2024-02-23T03:59:52;4.45;;;2.03;;
42104;SDS011;70664;51.472;5.712;2024-02-23T04:02:21;4.10;;;2.10;;
42104;SDS011;70664;51.472;5.712;2024-02-23T04:04:47;5.47;;;2.40;;
42104;SDS011;70664;51.472;5.712;2024-02-23T04:07:14;5.07;;;2.08;;
42104;SDS011;70664;51.472;5.712;2024-02-23T04:09:40;5.35;;;2.13;;
42104;SDS011;70664;51.472;5.712;2024-02-23T04:12:06;4.50;;;2.38;;
42104;SDS011;70664;51.472;5.712;2024-02-23T04:14:35;4.85;;;2.28;;
42104;SDS011;70664;51.472;5.712;2024-02-23T04:17:04;5.40;;;2.35;;
42104;SDS011;70664;51.472;5.712;2024-02-23T04:19:30;4.50;;;1.90;;
42104;SDS011;70664;51.472;5.712;2024-02-23T04:21:56;4.57;;;2.00;;
42104;SDS011;70664;51.472;5.712;2024-02-23T04:24:21;4.88;;;1.92;;
42104;SDS011;70664;51.472;5.712;2024-02-23T04:26:47;3.80;;;1.75;;
42104;SDS011;70664;51.472;5.712;2024-02-23T04:29:13;3.70;;;2.00;;
42104;SDS011;70664;51.472;5.712;2024-02-23T04:31:39;4.78;;;2.05;;
42104;SDS011;70664;51.472;5.712;2024-02-23T04:34:04;4.80;;;2.10;;
42104;SDS011;70664;51.472;5.712;2024-02-23T04:36:30;4.45;;;1.90;;
42104;SDS011;70664;51.472;5.712;2024-02-23T04:38:56;5.53;;;2.00;;
42104;SDS011;70664;51.472;5.712;2024-02-23T04:41:22;4.68;;;2.00;;
42104;SDS011;70664;51.472;5.712;2024-02-23T04:43:48;4.43;;;1.75;;
42104;SDS011;70664;51.472;5.712;2024-02-23T04:46:14;3.40;;;2.00;;
42104;SDS011;70664;51.472;5.712;2024-02-23T04:48:40;3.97;;;1.98;;
42104;SDS011;70664;51.472;5.712;2024-02-23T04:51:06;4.38;;;1.98;;
42104;SDS011;70664;51.472;5.712;2024-02-23T04:53:37;4.05;;;2.13;;
42104;SDS011;70664;51.472;5.712;2024-02-23T04:56:04;3.88;;;1.67;;
42104;SDS011;70664;51.472;5.712;2024-02-23T04:58:30;4.47;;;2.08;;
42104;SDS011;70664;51.472;5.712;2024-02-23T05:00:56;3.92;;;1.67;;
42104;SDS011;70664;51.472;5.712;2024-02-23T05:03:22;4.18;;;1.80;;
42104;SDS011;70664;51.472;5.712;2024-02-23T05:05:48;4.38;;;1.75;;
42104;SDS011;70664;51.472;5.712;2024-02-23T05:08:18;5.43;;;2.05;;
42104;SDS011;70664;51.472;5.712;2024-02-23T05:10:49;5.65;;;1.80;;
42104;SDS011;70664;51.472;5.712;2024-02-23T05:13:15;3.92;;;1.77;;
42104;SDS011;70664;51.472;5.712;2024-02-23T05:15:42;4.63;;;1.95;;
42104;SDS011;70664;51.472;5.712;2024-02-23T05:18:07;3.38;;;1.50;;
42104;SDS011;70664;51.472;5.712;2024-02-23T05:20:33;2.58;;;1.52;;
42104;SDS011;70664;51.472;5.712;2024-02-23T05:22:59;4.30;;;1.88;;
42104;SDS011;70664;51.472;5.712;2024-02-23T05:25:25;4.18;;;1.67;;
42104;SDS011;70664;51.472;5.712;2024-02-23T05:27:52;4.47;;;2.38;;
42104;SDS011;70664;51.472;5.712;2024-02-23T05:30:18;3.40;;;1.70;;
42104;SDS011;70664;51.472;5.712;2024-02-23T05:32:44;3.95;;;1.80;;
42104;SDS011;70664;51.472;5.712;2024-02-23T05:35:10;3.63;;;1.52;;
42104;SDS011;70664;51.472;5.712;2024-02-23T05:37:36;4.65;;;1.70;;
42104;SDS011;70664;51.472;5.712;2024-02-23T05:40:03;4.78;;;1.70;;
42104;SDS011;70664;51.472;5.712;2024-02-23T05:42:34;3.65;;;1.63;;
42104;SDS011;70664;51.472;5.712;2024-02-23T05:45:04;4.30;;;1.70;;
42104;SDS011;70664;51.472;5.712;2024-02-23T05:47:34;4.22;;;1.50;;
42104;SDS011;70664;51.472;5.712;2024-02-23T05:50:07;3.78;;;1.65;;
42104;SDS011;70664;51.472;5.712;2024-02-23T05:52:34;4.63;;;1.80;;
42104;SDS011;70664;51.472;5.712;2024-02-23T05:55:01;3.90;;;1.60;;
42104;SDS011;70664;51.472;5.712;2024-02-23T05:57:31;5.07;;;2.25;;
42104;SDS011;70664;51.472;5.712;2024-02-23T05:59:57;2.58;;;1.50;;
42104;SDS011;70664;51.472;5.712;2024-02-23T06:02:23;3.80;;;1.48;;
42104;SDS011;70664;51.472;5.712;2024-02-23T06:04:48;3.65;;;1.45;;
42104;SDS011;70664;51.472;5.712;2024-02-23T06:07:14;3.08;;;1.25;;
42104;SDS011;70664;51.472;5.712;2024-02-23T06:09:45;4.28;;;1.90;;
42104;SDS011;70664;51.472;5.712;2024-02-23T06:12:11;3.55;;;1.70;;
42104;SDS011;70664;51.472;5.712;2024-02-23T06:14:37;3.17;;;1.58;;
42104;SDS011;70664;51.472;5.712;2024-02-23T06:17:03;2.38;;;1.40;;
42104;SDS011;70664;51.472;5.712;2024-02-23T06:19:29;3.05;;;1.40;;
42104;SDS011;70664;51.472;5.712;2024-02-23T06:21:54;4.28;;;1.48;;
42104;SDS011;70664;51.472;5.712;2024-02-23T06:24:20;4.07;;;1.40;;
42104;SDS011;70664;51.472;5.712;2024-02-23T06:26:46;3.97;;;1.63;;
42104;SDS011;70664;51.472;5.712;2024-02-23T06:29:14;3.65;;;1.45;;
42104;SDS011;70664;51.472;5.712;2024-02-23T06:31:40;3.40;;;1.40;;
42104;SDS011;70664;51.472;5.712;2024-02-23T06:34:06;3.38;;;1.50;;
42104;SDS011;70664;51.472;5.712;2024-02-23T06:36:33;3.38;;;1.40;;
42104;SDS011;70664;51.472;5.712;2024-02-23T06:38:59;6.35;;;1.80;;
42104;SDS011;70664;51.472;5.712;2024-02-23T06:41:24;2.85;;;1.50;;
42104;SDS011;70664;51.472;5.712;2024-02-23T06:43:51;3.33;;;1.40;;
42104;SDS011;70664;51.472;5.712;2024-02-23T06:46:18;3.53;;;1.40;;
42104;SDS011;70664;51.472;5.712;2024-02-23T06:48:46;4.53;;;1.50;;
42104;SDS011;70664;51.472;5.712;2024-02-23T06:51:11;2.58;;;1.38;;
42104;SDS011;70664;51.472;5.712;2024-02-23T06:53:37;4.68;;;1.70;;
42104;SDS011;70664;51.472;5.712;2024-02-23T06:56:03;2.90;;;1.20;;
42104;SDS011;70664;51.472;5.712;2024-02-23T06:58:29;2.70;;;1.50;;
42104;SDS011;70664;51.472;5.712;2024-02-23T07:00:55;2.33;;;1.33;;
42104;SDS011;70664;51.472;5.712;2024-02-23T07:03:21;4.57;;;1.52;;
42104;SDS011;70664;51.472;5.712;2024-02-23T07:05:46;3.75;;;1.60;;
42104;SDS011;70664;51.472;5.712;2024-02-23T07:08:14;4.10;;;1.30;;
42104;SDS011;70664;51.472;5.712;2024-02-23T07:10:40;3.67;;;1.50;;
42104;SDS011;70664;51.472;5.712;2024-02-23T07:13:06;3.22;;;1.23;;
42104;SDS011;70664;51.472;5.712;2024-02-23T07:15:33;3.58;;;1.30;;
42104;SDS011;70664;51.472;5.712;2024-02-23T07:18:00;3.20;;;1.30;;
42104;SDS011;70664;51.472;5.712;2024-02-23T07:20:26;3.72;;;1.33;;
42104;SDS011;70664;51.472;5.712;2024-02-23T07:22:52;4.00;;;1.23;;
42104;SDS011;70664;51.472;5.712;2024-02-23T07:25:18;4.28;;;1.40;;
42104;SDS011;70664;51.472;5.712;2024-02-23T07:27:45;3.17;;;1.40;;
42104;SDS011;70664;51.472;5.712;2024-02-23T07:30:14;2.80;;;1.20;;
42104;SDS011;70664;51.472;5.712;2024-02-23T07:32:41;2.72;;;1.30;;
42104;SDS011;70664;51.472;5.712;2024-02-23T07:35:08;3.97;;;1.33;;
42104;SDS011;70664;51.472;5.712;2024-02-23T07:37:34;3.17;;;1.30;;
42104;SDS011;70664;51.472;5.712;2024-02-23T07:40:01;3.20;;;1.50;;
42104;SDS011;70664;51.472;5.712;2024-02-23T07:42:29;3.53;;;1.45;;
42104;SDS011;70664;51.472;5.712;2024-02-23T07:44:56;3.05;;;1.35;;
42104;SDS011;70664;51.472;5.712;2024-02-23T07:47:22;2.40;;;1.30;;
42104;SDS011;70664;51.472;5.712;2024-02-23T07:49:49;2.50;;;1.30;;
42104;SDS011;70664;51.472;5.712;2024-02-23T07:52:15;2.83;;;1.10;;
42104;SDS011;70664;51.472;5.712;2024-02-23T07:54:40;2.50;;;1.30;;
42104;SDS011;70664;51.472;5.712;2024-02-23T07:57:06;2.70;;;1.33;;
42104;SDS011;70664;51.472;5.712;2024-02-23T07:59:32;2.55;;;1.25;;
42104;SDS011;70664;51.472;5.712;2024-02-23T08:01:58;3.40;;;1.35;;
42104;SDS011;70664;51.472;5.712;2024-02-23T08:04:24;3.25;;;1.45;;
42104;SDS011;70664;51.472;5.712;2024-02-23T08:06:50;3.75;;;1.13;;
42104;SDS011;70664;51.472;5.712;2024-02-23T08:09:16;3.80;;;1.50;;
42104;SDS011;70664;51.472;5.712;2024-02-23T08:11:42;3.13;;;1.20;;
42104;SDS011;70664;51.472;5.712;2024-02-23T08:14:08;3.45;;;1.35;;
42104;SDS011;70664;51.472;5.712;2024-02-23T08:16:34;2.63;;;1.13;;
42104;SDS011;70664;51.472;5.712;2024-02-23T08:19:00;2.58;;;1.05;;
42104;SDS011;70664;51.472;5.712;2024-02-23T08:21:26;3.38;;;1.23;;
42104;SDS011;70664;51.472;5.712;2024-02-23T08:23:52;3.63;;;1.20;;
42104;SDS011;70664;51.472;5.712;2024-02-23T08:26:18;4.68;;;1.33;;
42104;SDS011;70664;51.472;5.712;2024-02-23T08:28:44;2.72;;;1.20;;
42104;SDS011;70664;51.472;5.712;2024-02-23T08:31:09;3.15;;;1.20;;
42104;SDS011;70664;51.472;5.712;2024-02-23T08:33:35;3.83;;;1.17;;
42104;SDS011;70664;51.472;5.712;2024-02-23T08:36:01;3.88;;;1.25;;
42104;SDS011;70664;51.472;5.712;2024-02-23T08:38:30;3.58;;;1.10;;
42104;SDS011;70664;51.472;5.712;2024-02-23T08:40:57;2.97;;;1.30;;
42104;SDS011;70664;51.472;5.712;2024-02-23T08:43:23;2.92;;;1.13;;
42104;SDS011;70664;51.472;5.712;2024-02-23T08:45:49;2.63;;;1.42;;
42104;SDS011;70664;51.472;5.712;2024-02-23T08:48:16;2.95;;;1.35;;
42104;SDS011;70664;51.472;5.712;2024-02-23T08:50:43;3.33;;;1.10;;
42104;SDS011;70664;51.472;5.712;2024-02-23T08:53:09;2.38;;;1.00;;
42104;SDS011;70664;51.472;5.712;2024-02-23T08:55:35;3.17;;;1.20;;
42104;SDS011;70664;51.472;5.712;2024-02-23T08:58:01;3.63;;;1.10;;
42104;SDS011;70664;51.472;5.712;2024-02-23T09:00:27;4.15;;;1.50;;
42104;SDS011;70664;51.472;5.712;2024-02-23T09:02:53;5.90;;;1.55;;
42104;SDS011;70664;51.472;5.712;2024-02-23T09:05:19;4.05;;;1.42;;
42104;SDS011;70664;51.472;5.712;2024-02-23T09:07:45;3.10;;;1.33;;
42104;SDS011;70664;51.472;5.712;2024-02-23T09:10:11;3.05;;;1.30;;
42104;SDS011;70664;51.472;5.712;2024-02-23T09:12:37;3.40;;;1.25;;
42104;SDS011;70664;51.472;5.712;2024-02-23T09:15:04;4.47;;;1.10;;
42104;SDS011;70664;51.472;5.712;2024-02-23T09:17:31;5.18;;;1.23;;
42104;SDS011;70664;51.472;5.712;2024-02-23T09:19:56;6.47;;;1.27;;
42104;SDS011;70664;51.472;5.712;2024-02-23T09:22:22;2.67;;;1.08;;
42104;SDS011;70664;51.472;5.712;2024-02-23T09:24:48;2.67;;;1.15;;
42104;SDS011;70664;51.472;5.712;2024-02-23T09:27:14;2.60;;;1.20;;
42104;SDS011;70664;51.472;5.712;2024-02-23T09:29:40;3.65;;;1.08;;
42104;SDS011;70664;51.472;5.712;2024-02-23T09:32:09;3.20;;;1.15;;
42104;SDS011;70664;51.472;5.712;2024-02-23T09:34:36;3.28;;;1.25;;
42104;SDS011;70664;51.472;5.712;2024-02-23T09:37:02;2.97;;;1.00;;
42104;SDS011;70664;51.472;5.712;2024-02-23T09:39:28;3.65;;;1.30;;
42104;SDS011;70664;51.472;5.712;2024-02-23T09:41:55;3.80;;;1.15;;
42104;SDS011;70664;51.472;5.712;2024-02-23T09:44:26;3.00;;;1.30;;
42104;SDS011;70664;51.472;5.712;2024-02-23T09:47:01;3.28;;;1.17;;
42104;SDS011;70664;51.472;5.712;2024-02-23T09:49:34;3.30;;;1.33;;
42104;SDS011;70664;51.472;5.712;2024-02-23T09:52:06;2.97;;;1.17;;
42104;SDS011;70664;51.472;5.712;2024-02-23T09:54:34;4.80;;;1.05;;
42104;SDS011;70664;51.472;5.712;2024-02-23T09:57:03;3.97;;;1.20;;
42104;SDS011;70664;51.472;5.712;2024-02-23T09:59:33;3.95;;;1.13;;
42104;SDS011;70664;51.472;5.712;2024-02-23T10:02:00;3.72;;;1.13;;
42104;SDS011;70664;51.472;5.712;2024-02-23T10:04:31;3.25;;;1.20;;
42104;SDS011;70664;51.472;5.712;2024-02-23T10:06:58;3.35;;;1.13;;
42104;SDS011;70664;51.472;5.712;2024-02-23T10:09:23;4.03;;;1.20;;
42104;SDS011;70664;51.472;5.712;2024-02-23T10:11:53;6.07;;;1.35;;
42104;SDS011;70664;51.472;5.712;2024-02-23T10:14:20;4.07;;;1.20;;
42104;SDS011;70664;51.472;5.712;2024-02-23T10:16:46;2.30;;;0.88;;
42104;SDS011;70664;51.472;5.712;2024-02-23T10:19:13;2.53;;;1.10;;
42104;SDS011;70664;51.472;5.712;2024-02-23T10:21:39;2.63;;;0.95;;
42104;SDS011;70664;51.472;5.712;2024-02-23T10:24:05;2.72;;;1.20;;
42104;SDS011;70664;51.472;5.712;2024-02-23T10:26:31;3.03;;;1.10;;
42104;SDS011;70664;51.472;5.712;2024-02-23T10:28:57;3.20;;;1.08;;
42104;SDS011;70664;51.472;5.712;2024-02-23T10:31:24;3.95;;;1.30;;
42104;SDS011;70664;51.472;5.712;2024-02-23T10:33:50;2.83;;;0.98;;
42104;SDS011;70664;51.472;5.712;2024-02-23T10:36:18;4.97;;;1.17;;
42104;SDS011;70664;51.472;5.712;2024-02-23T10:38:45;4.40;;;1.08;;
42104;SDS011;70664;51.472;5.712;2024-02-23T10:41:14;4.45;;;1.17;;
42104;SDS011;70664;51.472;5.712;2024-02-23T10:43:47;8.05;;;1.05;;
42104;SDS011;70664;51.472;5.712;2024-02-23T10:46:13;5.88;;;1.02;;
42104;SDS011;70664;51.472;5.712;2024-02-23T10:48:41;4.50;;;1.17;;
42104;SDS011;70664;51.472;5.712;2024-02-23T10:51:08;4.00;;;0.93;;
42104;SDS011;70664;51.472;5.712;2024-02-23T10:53:39;5.32;;;1.30;;
42104;SDS011;70664;51.472;5.712;2024-02-23T10:56:06;3.67;;;1.20;;
42104;SDS011;70664;51.472;5.712;2024-02-23T10:58:32;4.15;;;1.40;;
42104;SDS011;70664;51.472;5.712;2024-02-23T11:01:03;2.72;;;1.05;;
42104;SDS011;70664;51.472;5.712;2024-02-23T11:03:32;4.40;;;1.17;;
42104;SDS011;70664;51.472;5.712;2024-02-23T11:06:00;5.05;;;1.17;;
42104;SDS011;70664;51.472;5.712;2024-02-23T11:08:29;5.15;;;1.00;;
42104;SDS011;70664;51.472;5.712;2024-02-23T11:10:57;3.00;;;1.20;;
42104;SDS011;70664;51.472;5.712;2024-02-23T11:13:37;3.13;;;1.10;;
42104;SDS011;70664;51.472;5.712;2024-02-23T11:16:04;2.80;;;1.02;;
42104;SDS011;70664;51.472;5.712;2024-02-23T11:18:34;4.03;;;1.20;;
42104;SDS011;70664;51.472;5.712;2024-02-23T11:21:02;3.22;;;1.10;;
42104;SDS011;70664;51.472;5.712;2024-02-23T11:23:43;3.40;;;1.23;;
42104;SDS011;70664;51.472;5.712;2024-02-23T11:26:16;2.17;;;0.90;;
42104;SDS011;70664;51.472;5.712;2024-02-23T11:31:21;4.18;;;0.95;;
42104;SDS011;70664;51.472;5.712;2024-02-23T11:33:49;4.18;;;1.45;;
42104;SDS011;70664;51.472;5.712;2024-02-23T11:36:30;3.13;;;0.95;;
42104;SDS011;70664;51.472;5.712;2024-02-23T11:38:58;1.92;;;0.90;;
42104;SDS011;70664;51.472;5.712;2024-02-23T11:41:26;5.40;;;1.38;;
42104;SDS011;70664;51.472;5.712;2024-02-23T11:43:54;5.80;;;1.52;;
42104;SDS011;70664;51.472;5.712;2024-02-23T11:46:21;2.33;;;1.00;;
42104;SDS011;70664;51.472;5.712;2024-02-23T11:48:48;2.88;;;1.05;;
42104;SDS011;70664;51.472;5.712;2024-02-23T11:51:21;3.92;;;1.20;;
42104;SDS011;70664;51.472;5.712;2024-02-23T11:53:52;4.63;;;1.30;;
42104;SDS011;70664;51.472;5.712;2024-02-23T11:56:18;3.53;;;1.20;;
42104;SDS011;70664;51.472;5.712;2024-02-23T11:58:45;4.18;;;1.13;;
42104;SDS011;70664;51.472;5.712;2024-02-23T12:01:12;2.55;;;1.00;;
42104;SDS011;70664;51.472;5.712;2024-02-23T12:03:38;1.98;;;0.93;;
42104;SDS011;70664;51.472;5.712;2024-02-23T12:06:04;3.33;;;1.20;;
42104;SDS011;70664;51.472;5.712;2024-02-23T12:08:31;4.90;;;1.10;;
42104;SDS011;70664;51.472;5.712;2024-02-23T12:11:02;4.22;;;1.30;;
42104;SDS011;70664;51.472;5.712;2024-02-23T12:13:30;2.83;;;1.35;;
42104;SDS011;70664;51.472;5.712;2024-02-23T12:15:57;2.58;;;1.10;;
42104;SDS011;70664;51.472;5.712;2024-02-23T12:18:23;2.17;;;1.23;;
42104;SDS011;70664;51.472;5.712;2024-02-23T12:20:51;4.82;;;1.48;;
42104;SDS011;70664;51.472;5.712;2024-02-23T12:23:17;3.13;;;1.38;;
42104;SDS011;70664;51.472;5.712;2024-02-23T12:25:56;4.95;;;1.38;;
42104;SDS011;70664;51.472;5.712;2024-02-23T12:28:22;2.95;;;1.20;;
42104;SDS011;70664;51.472;5.712;2024-02-23T12:31:04;3.63;;;1.42;;
42104;SDS011;70664;51.472;5.712;2024-02-23T12:33:31;3.47;;;1.20;;
42104;SDS011;70664;51.472;5.712;2024-02-23T12:36:05;4.05;;;1.00;;
42104;SDS011;70664;51.472;5.712;2024-02-23T12:38:33;4.55;;;1.38;;
42104;SDS011;70664;51.472;5.712;2024-02-23T12:41:00;5.28;;;1.20;;
42104;SDS011;70664;51.472;5.712;2024-02-23T12:43:27;3.83;;;1.10;;
42104;SDS011;70664;51.472;5.712;2024-02-23T12:45:54;5.32;;;1.10;;
42104;SDS011;70664;51.472;5.712;2024-02-23T12:48:22;2.85;;;1.02;;
42104;SDS011;70664;51.472;5.712;2024-02-23T12:50:48;4.70;;;1.20;;
42104;SDS011;70664;51.472;5.712;2024-02-23T12:56:10;3.75;;;1.33;;
42104;SDS011;70664;51.472;5.712;2024-02-23T12:58:41;3.40;;;1.00;;
42104;SDS011;70664;51.472;5.712;2024-02-23T13:01:09;2.03;;;0.80;;
42104;SDS011;70664;51.472;5.712;2024-02-23T13:03:36;3.63;;;1.00;;
42104;SDS011;70664;51.472;5.712;2024-02-23T13:06:03;2.95;;;0.98;;
42104;SDS011;70664;51.472;5.712;2024-02-23T13:08:30;3.92;;;1.00;;
42104;SDS011;70664;51.472;5.712;2024-02-23T13:10:56;3.53;;;1.10;;
42104;SDS011;70664;51.472;5.712;2024-02-23T13:13:22;2.65;;;1.10;;
42104;SDS011;70664;51.472;5.712;2024-02-23T13:15:51;3.88;;;1.23;;
42104;SDS011;70664;51.472;5.712;2024-02-23T13:18:18;4.60;;;1.08;;
42104;SDS011;70664;51.472;5.712;2024-02-23T13:20:44;2.47;;;0.90;;
42104;SDS011;70664;51.472;5.712;2024-02-23T13:23:10;3.70;;;1.05;;
42104;SDS011;70664;51.472;5.712;2024-02-23T13:25:38;2.28;;;0.77;;
42104;SDS011;70664;51.472;5.712;2024-02-23T13:28:04;3.47;;;1.02;;
42104;SDS011;70664;51.472;5.712;2024-02-23T13:30:31;4.30;;;1.20;;
42104;SDS011;70664;51.472;5.712;2024-02-23T13:32:58;1.92;;;0.90;;
42104;SDS011;70664;51.472;5.712;2024-02-23T13:35:24;4.55;;;1.13;;
42104;SDS011;70664;51.472;5.712;2024-02-23T13:37:50;4.00;;;0.90;;
42104;SDS011;70664;51.472;5.712;2024-02-23T13:40:16;3.70;;;1.00;;
42104;SDS011;70664;51.472;5.712;2024-02-23T13:42:42;3.90;;;0.90;;
42104;SDS011;70664;51.472;5.712;2024-02-23T13:45:11;1.27;;;0.80;;
42104;SDS011;70664;51.472;5.712;2024-02-23T13:47:39;1.45;;;0.80;;
42104;SDS011;70664;51.472;5.712;2024-02-23T13:50:05;2.47;;;0.90;;
42104;SDS011;70664;51.472;5.712;2024-02-23T13:52:31;1.38;;;0.90;;
42104;SDS011;70664;51.472;5.712;2024-02-23T13:54:57;4.38;;;1.00;;
42104;SDS011;70664;51.472;5.712;2024-02-23T13:57:23;0.95;;;0.63;;
42104;SDS011;70664;51.472;5.712;2024-02-23T13:59:49;2.08;;;0.80;;
42104;SDS011;70664;51.472;5.712;2024-02-23T14:02:15;3.53;;;1.00;;
42104;SDS011;70664;51.472;5.712;2024-02-23T14:04:43;5.70;;;1.35;;
42104;SDS011;70664;51.472;5.712;2024-02-23T14:07:10;7.35;;;1.20;;
42104;SDS011;70664;51.472;5.712;2024-02-23T14:09:36;5.15;;;1.00;;
42104;SDS011;70664;51.472;5.712;2024-02-23T14:12:01;5.53;;;1.13;;
42104;SDS011;70664;51.472;5.712;2024-02-23T14:14:27;5.22;;;1.00;;
42104;SDS011;70664;51.472;5.712;2024-02-23T14:16:53;5.95;;;1.23;;
42104;SDS011;70664;51.472;5.712;2024-02-23T14:19:19;4.70;;;1.00;;
42104;SDS011;70664;51.472;5.712;2024-02-23T14:21:45;3.83;;;1.17;;
42104;SDS011;70664;51.472;5.712;2024-02-23T14:24:13;3.95;;;1.15;;
42104;SDS011;70664;51.472;5.712;2024-02-23T14:26:39;3.38;;;0.90;;
42104;SDS011;70664;51.472;5.712;2024-02-23T14:29:05;2.58;;;1.05;;
42104;SDS011;70664;51.472;5.712;2024-02-23T14:31:31;4.15;;;0.88;;
42104;SDS011;70664;51.472;5.712;2024-02-23T14:33:57;2.97;;;0.90;;
42104;SDS011;70664;51.472;5.712;2024-02-23T14:36:23;2.55;;;1.10;;
42104;SDS011;70664;51.472;5.712;2024-02-23T14:38:49;2.45;;;0.80;;
42104;SDS011;70664;51.472;5.712;2024-02-23T14:41:15;5.60;;;0.90;;
42104;SDS011;70664;51.472;5.712;2024-02-23T14:43:40;2.35;;;0.85;;
42104;SDS011;70664;51.472;5.712;2024-02-23T14:46:06;2.80;;;1.00;;
42104;SDS011;70664;51.472;5.712;2024-02-23T14:48:34;2.22;;;0.98;;
42104;SDS011;70664;51.472;5.712;2024-02-23T14:51:00;2.67;;;0.80;;